sensor_id;sensor_type;location;lat;lon;timestamp;pressure;altitude;pressure_sealevel;temperature;humidity
15694;BME280;7947;48.834;9.132;2023-05-14T00:01:00;98201.41;;;12.67;96.07
15694;BME280;7947;48.834;9.132;2023-05-14T00:04:03;98195.50;;;12.65;96.01
15694;BME280;7947;48.834;9.132;2023-05-14T00:07:08;98196.88;;;12.63;95.95
15694;BME280;7947;48.834;9.132;2023-05-14T00:10:11;98188.00;;;12.62;95.65
15694;BME280;7947;48.834;9.132;2023-05-14T00:13:14;98188.50;;;12.64;95.39
15694;BME280;7947;48.834;9.132;2023-05-14T00:16:16;98186.91;;;12.63;95.41
15694;BME280;7947;48.834;9.132;2023-05-14T00:19:19;98183.47;;;12.58;95.00
15694;BME280;7947;48.834;9.132;2023-05-14T00:22:23;98177.28;;;12.57;94.87
15694;BME280;7947;48.834;9.132;2023-05-14T00:25:26;98175.22;;;12.49;94.36
15694;BME280;7947;48.834;9.132;2023-05-14T00:28:29;98172.59;;;12.44;94.22
15694;BME280;7947;48.834;9.132;2023-05-14T00:31:32;98166.50;;;12.34;93.87
15694;BME280;7947;48.834;9.132;2023-05-14T00:34:35;98172.47;;;12.31;94.38
15694;BME280;7947;48.834;9.132;2023-05-14T00:37:39;98171.66;;;12.30;94.17
15694;BME280;7947;48.834;9.132;2023-05-14T00:40:42;98170.91;;;12.25;94.08
15694;BME280;7947;48.834;9.132;2023-05-14T00:43:46;98171.69;;;12.25;94.39
15694;BME280;7947;48.834;9.132;2023-05-14T00:46:49;98167.13;;;12.26;94.70
15694;BME280;7947;48.834;9.132;2023-05-14T00:49:52;98154.78;;;12.25;94.45
15694;BME280;7947;48.834;9.132;2023-05-14T00:52:56;98162.34;;;12.23;94.36
15694;BME280;7947;48.834;9.132;2023-05-14T00:55:59;98158.31;;;12.20;93.99
15694;BME280;7947;48.834;9.132;2023-05-14T00:59:02;98158.09;;;12.17;94.13
15694;BME280;7947;48.834;9.132;2023-05-14T01:02:05;98158.13;;;12.12;93.96
15694;BME280;7947;48.834;9.132;2023-05-14T01:05:08;98153.38;;;12.04;94.02
15694;BME280;7947;48.834;9.132;2023-05-14T01:08:19;98156.91;;;11.99;94.13
15694;BME280;7947;48.834;9.132;2023-05-14T01:11:25;98150.22;;;11.97;93.54
15694;BME280;7947;48.834;9.132;2023-05-14T01:14:47;98147.28;;;11.93;93.31
15694;BME280;7947;48.834;9.132;2023-05-14T01:18:02;98146.78;;;11.91;93.06
15694;BME280;7947;48.834;9.132;2023-05-14T01:21:17;98146.25;;;11.89;92.47
15694;BME280;7947;48.834;9.132;2023-05-14T01:24:23;98140.13;;;11.84;92.81
15694;BME280;7947;48.834;9.132;2023-05-14T01:27:42;98145.28;;;11.75;92.67
15694;BME280;7947;48.834;9.132;2023-05-14T01:30:52;98147.78;;;11.66;92.13
15694;BME280;7947;48.834;9.132;2023-05-14T01:33:59;98145.09;;;11.61;92.04
15694;BME280;7947;48.834;9.132;2023-05-14T01:37:04;98145.72;;;11.53;91.79
15694;BME280;7947;48.834;9.132;2023-05-14T01:40:09;98145.22;;;11.46;90.86
15694;BME280;7947;48.834;9.132;2023-05-14T01:43:13;98141.78;;;11.41;91.51
15694;BME280;7947;48.834;9.132;2023-05-14T01:46:17;98137.50;;;11.40;91.71
15694;BME280;7947;48.834;9.132;2023-05-14T01:49:19;98143.16;;;11.33;90.97
15694;BME280;7947;48.834;9.132;2023-05-14T01:52:22;98145.31;;;11.31;90.66
15694;BME280;7947;48.834;9.132;2023-05-14T01:55:26;98141.06;;;11.25;90.48
15694;BME280;7947;48.834;9.132;2023-05-14T01:58:29;98144.28;;;11.27;89.97
15694;BME280;7947;48.834;9.132;2023-05-14T02:01:32;98142.22;;;11.14;91.06
15694;BME280;7947;48.834;9.132;2023-05-14T02:04:34;98139.03;;;11.07;91.67
15694;BME280;7947;48.834;9.132;2023-05-14T02:07:37;98137.72;;;11.05;92.55
15694;BME280;7947;48.834;9.132;2023-05-14T02:10:42;98135.84;;;11.05;93.01
15694;BME280;7947;48.834;9.132;2023-05-14T02:13:44;98139.84;;;11.08;92.20
15694;BME280;7947;48.834;9.132;2023-05-14T02:16:47;98147.06;;;11.07;91.41
15694;BME280;7947;48.834;9.132;2023-05-14T02:19:51;98144.66;;;11.06;90.42
15694;BME280;7947;48.834;9.132;2023-05-14T02:22:54;98143.91;;;11.00;90.63
15694;BME280;7947;48.834;9.132;2023-05-14T02:25:58;98146.06;;;10.98;89.42
15694;BME280;7947;48.834;9.132;2023-05-14T02:29:01;98150.09;;;10.96;89.65
15694;BME280;7947;48.834;9.132;2023-05-14T02:32:04;98146.09;;;10.93;89.96
15694;BME280;7947;48.834;9.132;2023-05-14T02:35:08;98143.94;;;10.90;90.36
15694;BME280;7947;48.834;9.132;2023-05-14T02:38:10;98148.53;;;10.89;91.61
15694;BME280;7947;48.834;9.132;2023-05-14T02:41:14;98149.31;;;10.90;92.17
15694;BME280;7947;48.834;9.132;2023-05-14T02:44:17;98144.47;;;10.92;91.37
15694;BME280;7947;48.834;9.132;2023-05-14T02:47:20;98148.50;;;10.95;91.19
15694;BME280;7947;48.834;9.132;2023-05-14T02:50:23;98150.13;;;10.90;91.75
15694;BME280;7947;48.834;9.132;2023-05-14T02:53:26;98147.97;;;10.93;92.03
15694;BME280;7947;48.834;9.132;2023-05-14T02:56:30;98151.19;;;10.95;92.22
15694;BME280;7947;48.834;9.132;2023-05-14T02:59:33;98148.75;;;10.98;93.35
15694;BME280;7947;48.834;9.132;2023-05-14T03:02:37;98151.66;;;11.02;93.61
15694;BME280;7947;48.834;9.132;2023-05-14T03:05:40;98156.25;;;11.01;93.88
15694;BME280;7947;48.834;9.132;2023-05-14T03:08:43;98158.09;;;11.06;94.48
15694;BME280;7947;48.834;9.132;2023-05-14T03:11:49;98151.09;;;11.10;95.27
15694;BME280;7947;48.834;9.132;2023-05-14T03:14:51;98165.59;;;11.09;94.54
15694;BME280;7947;48.834;9.132;2023-05-14T03:17:54;98153.25;;;11.13;95.18
15694;BME280;7947;48.834;9.132;2023-05-14T03:20:57;98147.88;;;11.13;95.68
15694;BME280;7947;48.834;9.132;2023-05-14T03:24:00;98147.31;;;11.16;95.62
15694;BME280;7947;48.834;9.132;2023-05-14T03:27:04;98149.94;;;11.21;96.08
15694;BME280;7947;48.834;9.132;2023-05-14T03:30:08;98136.78;;;11.24;96.83
15694;BME280;7947;48.834;9.132;2023-05-14T03:33:12;98146.97;;;11.27;96.79
15694;BME280;7947;48.834;9.132;2023-05-14T03:36:15;98141.59;;;11.32;96.56
15694;BME280;7947;48.834;9.132;2023-05-14T03:39:18;98149.63;;;11.32;96.34
15694;BME280;7947;48.834;9.132;2023-05-14T03:42:23;98148.25;;;11.35;96.41
15694;BME280;7947;48.834;9.132;2023-05-14T03:45:25;98150.41;;;11.38;97.20
15694;BME280;7947;48.834;9.132;2023-05-14T03:48:29;98147.13;;;11.41;96.37
15694;BME280;7947;48.834;9.132;2023-05-14T03:51:32;98136.34;;;11.46;96.57
15694;BME280;7947;48.834;9.132;2023-05-14T03:54:34;98148.47;;;11.43;96.69
15694;BME280;7947;48.834;9.132;2023-05-14T03:57:39;98139.66;;;11.38;96.42
15694;BME280;7947;48.834;9.132;2023-05-14T04:00:42;98139.38;;;11.34;96.58
15694;BME280;7947;48.834;9.132;2023-05-14T04:03:45;98139.38;;;11.34;97.51
15694;BME280;7947;48.834;9.132;2023-05-14T04:06:48;98135.88;;;11.39;98.01
15694;BME280;7947;48.834;9.132;2023-05-14T04:09:51;98138.03;;;11.37;97.74
15694;BME280;7947;48.834;9.132;2023-05-14T04:12:55;98137.50;;;11.35;97.64
15694;BME280;7947;48.834;9.132;2023-05-14T04:15:58;98139.38;;;11.39;97.90
15694;BME280;7947;48.834;9.132;2023-05-14T04:19:01;98136.41;;;11.41;97.92
15694;BME280;7947;48.834;9.132;2023-05-14T04:22:05;98141.25;;;11.39;98.03
15694;BME280;7947;48.834;9.132;2023-05-14T04:25:08;98144.75;;;11.39;97.48
15694;BME280;7947;48.834;9.132;2023-05-14T04:28:12;98139.09;;;11.41;97.23
15694;BME280;7947;48.834;9.132;2023-05-14T04:31:15;98142.00;;;11.44;97.46
15694;BME280;7947;48.834;9.132;2023-05-14T04:34:18;98144.69;;;11.49;97.50
15694;BME280;7947;48.834;9.132;2023-05-14T04:37:20;98143.56;;;11.50;96.73
15694;BME280;7947;48.834;9.132;2023-05-14T04:40:23;98138.22;;;11.50;97.21
15694;BME280;7947;48.834;9.132;2023-05-14T04:43:28;98144.09;;;11.52;96.56
15694;BME280;7947;48.834;9.132;2023-05-14T04:46:30;98137.91;;;11.52;97.02
15694;BME280;7947;48.834;9.132;2023-05-14T04:49:33;98133.59;;;11.56;96.24
15694;BME280;7947;48.834;9.132;2023-05-14T04:52:36;98137.09;;;11.56;96.19
15694;BME280;7947;48.834;9.132;2023-05-14T04:55:39;98136.81;;;11.58;96.42
15694;BME280;7947;48.834;9.132;2023-05-14T04:58:43;98141.88;;;11.59;95.93
15694;BME280;7947;48.834;9.132;2023-05-14T05:01:46;98149.41;;;11.62;95.40
15694;BME280;7947;48.834;9.132;2023-05-14T05:04:49;98142.16;;;11.63;95.17
15694;BME280;7947;48.834;9.132;2023-05-14T05:07:52;98142.47;;;11.56;95.75
15694;BME280;7947;48.834;9.132;2023-05-14T05:10:55;98141.69;;;11.51;95.65
15694;BME280;7947;48.834;9.132;2023-05-14T05:13:59;98138.72;;;11.57;96.00
15694;BME280;7947;48.834;9.132;2023-05-14T05:17:02;98137.31;;;11.60;95.71
15694;BME280;7947;48.834;9.132;2023-05-14T05:20:06;98142.97;;;11.58;95.94
15694;BME280;7947;48.834;9.132;2023-05-14T05:23:10;98141.63;;;11.61;96.06
15694;BME280;7947;48.834;9.132;2023-05-14T05:26:13;98131.94;;;11.65;95.40
15694;BME280;7947;48.834;9.132;2023-05-14T05:29:17;98137.28;;;11.70;95.69
15694;BME280;7947;48.834;9.132;2023-05-14T05:32:20;98141.53;;;11.76;96.02
15694;BME280;7947;48.834;9.132;2023-05-14T05:35:22;98134.53;;;11.75;95.44
15694;BME280;7947;48.834;9.132;2023-05-14T05:38:25;98137.19;;;11.80;95.25
15694;BME280;7947;48.834;9.132;2023-05-14T05:41:28;98141.44;;;11.86;95.08
15694;BME280;7947;48.834;9.132;2023-05-14T05:44:32;98135.22;;;11.91;94.79
15694;BME280;7947;48.834;9.132;2023-05-14T05:47:35;98147.50;;;12.02;93.78
15694;BME280;7947;48.834;9.132;2023-05-14T05:50:38;98149.06;;;12.08;93.61
15694;BME280;7947;48.834;9.132;2023-05-14T05:53:41;98142.00;;;12.12;93.10
15694;BME280;7947;48.834;9.132;2023-05-14T05:56:43;98141.44;;;12.15;92.73
15694;BME280;7947;48.834;9.132;2023-05-14T05:59:48;98127.25;;;12.09;92.79
15694;BME280;7947;48.834;9.132;2023-05-14T06:02:50;98127.25;;;12.09;92.69
15694;BME280;7947;48.834;9.132;2023-05-14T06:05:53;98141.25;;;12.06;93.33
15694;BME280;7947;48.834;9.132;2023-05-14T06:08:56;98132.84;;;12.13;93.37
15694;BME280;7947;48.834;9.132;2023-05-14T06:11:59;98137.41;;;12.17;92.79
15694;BME280;7947;48.834;9.132;2023-05-14T06:15:04;98136.22;;;12.23;92.59
15694;BME280;7947;48.834;9.132;2023-05-14T06:18:07;98142.94;;;12.26;91.60
15694;BME280;7947;48.834;9.132;2023-05-14T06:21:09;98140.75;;;12.28;91.77
15694;BME280;7947;48.834;9.132;2023-05-14T06:24:12;98140.94;;;12.36;91.51
15694;BME280;7947;48.834;9.132;2023-05-14T06:27:15;98139.00;;;12.42;91.65
15694;BME280;7947;48.834;9.132;2023-05-14T06:30:19;98137.13;;;12.42;91.99
15694;BME280;7947;48.834;9.132;2023-05-14T06:33:22;98136.25;;;12.47;91.93
15694;BME280;7947;48.834;9.132;2023-05-14T06:36:31;98139.69;;;12.52;91.89
15694;BME280;7947;48.834;9.132;2023-05-14T06:39:34;98145.06;;;12.52;91.27
15694;BME280;7947;48.834;9.132;2023-05-14T06:42:37;98140.44;;;12.58;91.74
15694;BME280;7947;48.834;9.132;2023-05-14T06:45:41;98135.50;;;12.65;91.24
15694;BME280;7947;48.834;9.132;2023-05-14T06:48:44;98134.66;;;12.69;90.89
15694;BME280;7947;48.834;9.132;2023-05-14T06:51:47;98133.00;;;12.74;90.65
15694;BME280;7947;48.834;9.132;2023-05-14T06:54:50;98132.31;;;12.82;90.02
15694;BME280;7947;48.834;9.132;2023-05-14T06:57:53;98134.16;;;12.86;89.47
15694;BME280;7947;48.834;9.132;2023-05-14T07:00:57;98138.19;;;12.89;89.52
15694;BME280;7947;48.834;9.132;2023-05-14T07:04:00;98135.91;;;12.96;89.67
15694;BME280;7947;48.834;9.132;2023-05-14T07:07:03;98125.75;;;12.93;89.39
15694;BME280;7947;48.834;9.132;2023-05-14T07:10:07;98132.88;;;13.02;88.67
15694;BME280;7947;48.834;9.132;2023-05-14T07:13:10;98133.94;;;13.06;89.35
15694;BME280;7947;48.834;9.132;2023-05-14T07:16:14;98130.09;;;13.12;89.25
15694;BME280;7947;48.834;9.132;2023-05-14T07:19:16;98130.00;;;13.17;88.32
15694;BME280;7947;48.834;9.132;2023-05-14T07:22:19;98131.31;;;13.20;87.81
15694;BME280;7947;48.834;9.132;2023-05-14T07:25:22;98126.16;;;13.23;88.05
15694;BME280;7947;48.834;9.132;2023-05-14T07:28:25;98125.34;;;13.23;87.79
15694;BME280;7947;48.834;9.132;2023-05-14T07:31:29;98123.97;;;13.25;88.00
15694;BME280;7947;48.834;9.132;2023-05-14T07:34:32;98117.97;;;13.28;87.51
15694;BME280;7947;48.834;9.132;2023-05-14T07:37:35;98120.31;;;13.35;87.47
15694;BME280;7947;48.834;9.132;2023-05-14T07:40:37;98122.06;;;13.44;86.89
15694;BME280;7947;48.834;9.132;2023-05-14T07:43:40;98112.28;;;13.48;86.96
15694;BME280;7947;48.834;9.132;2023-05-14T07:46:45;98107.97;;;13.66;86.59
15694;BME280;7947;48.834;9.132;2023-05-14T07:49:47;98103.28;;;13.72;85.10
15694;BME280;7947;48.834;9.132;2023-05-14T07:52:50;98109.03;;;13.84;85.26
15694;BME280;7947;48.834;9.132;2023-05-14T07:55:53;98116.72;;;13.90;84.65
15694;BME280;7947;48.834;9.132;2023-05-14T07:58:56;98108.31;;;13.92;84.49
15694;BME280;7947;48.834;9.132;2023-05-14T08:02:00;98109.06;;;14.11;84.88
15694;BME280;7947;48.834;9.132;2023-05-14T08:05:03;98113.31;;;14.30;83.99
15694;BME280;7947;48.834;9.132;2023-05-14T08:08:06;98100.81;;;14.48;83.73
15694;BME280;7947;48.834;9.132;2023-05-14T08:11:09;98097.41;;;14.70;82.59
15694;BME280;7947;48.834;9.132;2023-05-14T08:14:12;98105.78;;;14.95;81.34
15694;BME280;7947;48.834;9.132;2023-05-14T08:17:16;98099.03;;;15.06;80.26
15694;BME280;7947;48.834;9.132;2023-05-14T08:20:19;98096.34;;;15.06;80.64
15694;BME280;7947;48.834;9.132;2023-05-14T08:23:21;98093.94;;;15.41;81.10
15694;BME280;7947;48.834;9.132;2023-05-14T08:26:24;98097.06;;;15.70;80.38
15694;BME280;7947;48.834;9.132;2023-05-14T08:29:27;98095.16;;;16.01;79.86
15694;BME280;7947;48.834;9.132;2023-05-14T08:32:31;98097.47;;;16.16;78.84
15694;BME280;7947;48.834;9.132;2023-05-14T08:35:34;98082.47;;;16.10;77.87
15694;BME280;7947;48.834;9.132;2023-05-14T08:38:36;98090.09;;;16.08;78.34
15694;BME280;7947;48.834;9.132;2023-05-14T08:41:39;98089.16;;;16.12;78.46
15694;BME280;7947;48.834;9.132;2023-05-14T08:44:47;98085.53;;;16.17;77.63
15694;BME280;7947;48.834;9.132;2023-05-14T08:47:51;98076.81;;;16.20;77.62
15694;BME280;7947;48.834;9.132;2023-05-14T08:50:54;98080.50;;;16.33;77.74
15694;BME280;7947;48.834;9.132;2023-05-14T08:53:58;98074.66;;;16.48;75.72
15694;BME280;7947;48.834;9.132;2023-05-14T08:57:02;98071.94;;;16.48;75.74
15694;BME280;7947;48.834;9.132;2023-05-14T09:00:05;98069.50;;;16.68;76.02
15694;BME280;7947;48.834;9.132;2023-05-14T09:03:13;98069.69;;;16.89;74.99
15694;BME280;7947;48.834;9.132;2023-05-14T09:06:17;98070.97;;;17.17;74.58
15694;BME280;7947;48.834;9.132;2023-05-14T09:09:21;98064.47;;;17.44;73.02
15694;BME280;7947;48.834;9.132;2023-05-14T09:12:24;98072.59;;;17.61;71.66
15694;BME280;7947;48.834;9.132;2023-05-14T09:15:27;98072.59;;;17.61;72.55
15694;BME280;7947;48.834;9.132;2023-05-14T09:18:34;98069.75;;;17.49;71.76
15694;BME280;7947;48.834;9.132;2023-05-14T09:21:37;98072.25;;;17.37;72.12
15694;BME280;7947;48.834;9.132;2023-05-14T09:24:41;98068.91;;;17.31;71.93
15694;BME280;7947;48.834;9.132;2023-05-14T09:27:46;98062.38;;;17.58;74.21
15694;BME280;7947;48.834;9.132;2023-05-14T09:30:51;98057.13;;;17.53;71.43
15694;BME280;7947;48.834;9.132;2023-05-14T09:33:55;98054.09;;;17.37;71.72
15694;BME280;7947;48.834;9.132;2023-05-14T09:36:59;98053.44;;;17.23;71.16
15694;BME280;7947;48.834;9.132;2023-05-14T09:40:05;98055.34;;;17.05;71.28
15694;BME280;7947;48.834;9.132;2023-05-14T09:43:09;98055.66;;;16.87;72.82
15694;BME280;7947;48.834;9.132;2023-05-14T09:46:12;98052.44;;;16.76;72.99
15694;BME280;7947;48.834;9.132;2023-05-14T09:49:16;98051.34;;;16.77;72.34
15694;BME280;7947;48.834;9.132;2023-05-14T09:52:19;98051.53;;;17.24;72.03
15694;BME280;7947;48.834;9.132;2023-05-14T09:55:22;98043.41;;;17.41;71.55
15694;BME280;7947;48.834;9.132;2023-05-14T09:58:25;98044.19;;;17.33;72.01
15694;BME280;7947;48.834;9.132;2023-05-14T10:01:29;98036.09;;;17.24;71.05
15694;BME280;7947;48.834;9.132;2023-05-14T10:04:36;98034.97;;;17.17;70.83
15694;BME280;7947;48.834;9.132;2023-05-14T10:07:43;98032.59;;;17.06;70.63
15694;BME280;7947;48.834;9.132;2023-05-14T10:10:50;98035.91;;;17.03;68.70
15694;BME280;7947;48.834;9.132;2023-05-14T10:13:56;98027.16;;;16.98;69.78
15694;BME280;7947;48.834;9.132;2023-05-14T10:17:02;98036.22;;;17.02;71.03
15694;BME280;7947;48.834;9.132;2023-05-14T10:20:14;98037.03;;;17.02;70.09
15694;BME280;7947;48.834;9.132;2023-05-14T10:23:17;98038.97;;;17.10;71.29
15694;BME280;7947;48.834;9.132;2023-05-14T10:26:20;98037.38;;;17.18;68.71
15694;BME280;7947;48.834;9.132;2023-05-14T10:29:32;98038.94;;;17.19;70.09
15694;BME280;7947;48.834;9.132;2023-05-14T10:32:35;98032.41;;;17.29;70.42
15694;BME280;7947;48.834;9.132;2023-05-14T10:35:55;98036.69;;;17.38;70.21
15694;BME280;7947;48.834;9.132;2023-05-14T10:39:02;98035.41;;;17.44;68.65
15694;BME280;7947;48.834;9.132;2023-05-14T10:42:05;98033.97;;;17.64;69.01
15694;BME280;7947;48.834;9.132;2023-05-14T10:45:11;98026.78;;;17.68;70.45
15694;BME280;7947;48.834;9.132;2023-05-14T10:48:14;98027.59;;;17.60;68.70
15694;BME280;7947;48.834;9.132;2023-05-14T10:51:19;98027.47;;;17.56;69.83
15694;BME280;7947;48.834;9.132;2023-05-14T10:54:26;98013.59;;;17.32;70.39
15694;BME280;7947;48.834;9.132;2023-05-14T10:57:30;98018.88;;;17.20;70.47
15694;BME280;7947;48.834;9.132;2023-05-14T11:00:34;98009.47;;;17.17;71.27
15694;BME280;7947;48.834;9.132;2023-05-14T11:03:39;98002.72;;;17.66;72.17
15694;BME280;7947;48.834;9.132;2023-05-14T11:06:45;98007.78;;;18.23;71.36
15694;BME280;7947;48.834;9.132;2023-05-14T11:09:49;97996.47;;;18.70;67.36
15694;BME280;7947;48.834;9.132;2023-05-14T11:12:52;97999.41;;;18.86;65.68
15694;BME280;7947;48.834;9.132;2023-05-14T11:15:56;97991.41;;;19.22;65.29
15694;BME280;7947;48.834;9.132;2023-05-14T11:19:09;98000.44;;;19.67;65.57
15694;BME280;7947;48.834;9.132;2023-05-14T11:22:14;97981.31;;;19.76;60.67
15694;BME280;7947;48.834;9.132;2023-05-14T11:25:16;97983.78;;;19.69;60.15
15694;BME280;7947;48.834;9.132;2023-05-14T11:28:19;97983.34;;;19.34;59.95
15694;BME280;7947;48.834;9.132;2023-05-14T11:31:24;97980.09;;;19.20;60.95
15694;BME280;7947;48.834;9.132;2023-05-14T11:34:27;97970.59;;;19.47;62.70
15694;BME280;7947;48.834;9.132;2023-05-14T11:37:31;97964.75;;;19.81;60.61
15694;BME280;7947;48.834;9.132;2023-05-14T11:40:34;97960.63;;;20.20;62.22
15694;BME280;7947;48.834;9.132;2023-05-14T11:43:37;97961.28;;;20.29;59.94
15694;BME280;7947;48.834;9.132;2023-05-14T11:46:39;97963.91;;;20.25;58.42
15694;BME280;7947;48.834;9.132;2023-05-14T11:49:42;97961.19;;;20.37;58.51
15694;BME280;7947;48.834;9.132;2023-05-14T11:52:47;97955.28;;;20.47;58.04
15694;BME280;7947;48.834;9.132;2023-05-14T11:55:51;97959.56;;;20.48;55.00
15694;BME280;7947;48.834;9.132;2023-05-14T11:58:55;97951.97;;;20.18;56.16
15694;BME280;7947;48.834;9.132;2023-05-14T12:01:58;97948.97;;;19.74;55.95
15694;BME280;7947;48.834;9.132;2023-05-14T12:05:03;97950.22;;;19.53;56.35
15694;BME280;7947;48.834;9.132;2023-05-14T12:08:21;97954.22;;;19.79;59.29
15694;BME280;7947;48.834;9.132;2023-05-14T12:15:17;97950.31;;;19.24;58.80
15694;BME280;7947;48.834;9.132;2023-05-14T12:18:23;97946.78;;;18.90;60.05
15694;BME280;7947;48.834;9.132;2023-05-14T12:21:28;97947.78;;;18.65;61.80
15694;BME280;7947;48.834;9.132;2023-05-14T12:24:33;97949.50;;;18.41;63.17
15694;BME280;7947;48.834;9.132;2023-05-14T12:27:36;97944.03;;;18.29;62.64
15694;BME280;7947;48.834;9.132;2023-05-14T12:30:39;97949.16;;;18.22;62.64
15694;BME280;7947;48.834;9.132;2023-05-14T12:33:42;97935.06;;;18.08;62.95
15694;BME280;7947;48.834;9.132;2023-05-14T12:36:45;97933.63;;;18.01;62.90
15694;BME280;7947;48.834;9.132;2023-05-14T12:39:49;97928.84;;;17.98;63.17
15694;BME280;7947;48.834;9.132;2023-05-14T12:42:52;97932.69;;;17.97;64.16
15694;BME280;7947;48.834;9.132;2023-05-14T12:45:57;97926.94;;;17.99;66.04
15694;BME280;7947;48.834;9.132;2023-05-14T12:49:00;97933.03;;;17.96;64.58
15694;BME280;7947;48.834;9.132;2023-05-14T12:52:03;97915.81;;;17.92;65.35
15694;BME280;7947;48.834;9.132;2023-05-14T12:55:27;97918.84;;;18.20;67.47
15694;BME280;7947;48.834;9.132;2023-05-14T12:58:30;97908.13;;;18.52;66.85
15694;BME280;7947;48.834;9.132;2023-05-14T13:01:32;97907.41;;;18.76;64.98
15694;BME280;7947;48.834;9.132;2023-05-14T13:04:35;97906.38;;;18.89;64.89
15694;BME280;7947;48.834;9.132;2023-05-14T13:07:39;97901.13;;;18.84;62.72
15694;BME280;7947;48.834;9.132;2023-05-14T13:10:43;97894.53;;;18.73;61.01
15694;BME280;7947;48.834;9.132;2023-05-14T13:13:46;97892.06;;;18.59;60.21
15694;BME280;7947;48.834;9.132;2023-05-14T13:16:48;97897.06;;;18.90;62.41
15694;BME280;7947;48.834;9.132;2023-05-14T13:19:51;97885.25;;;19.39;63.24
15694;BME280;7947;48.834;9.132;2023-05-14T13:22:54;97886.75;;;19.73;61.01
15694;BME280;7947;48.834;9.132;2023-05-14T13:25:58;97879.28;;;19.70;58.63
15694;BME280;7947;48.834;9.132;2023-05-14T13:29:01;97877.78;;;19.72;59.87
15694;BME280;7947;48.834;9.132;2023-05-14T13:32:04;97872.34;;;19.85;56.49
15694;BME280;7947;48.834;9.132;2023-05-14T13:35:07;97871.44;;;19.80;56.05
15694;BME280;7947;48.834;9.132;2023-05-14T13:38:10;97873.50;;;19.84;56.46
15694;BME280;7947;48.834;9.132;2023-05-14T13:41:14;97871.66;;;19.75;57.85
15694;BME280;7947;48.834;9.132;2023-05-14T13:44:17;97865.56;;;19.66;57.83
15694;BME280;7947;48.834;9.132;2023-05-14T13:47:20;97867.41;;;19.30;54.78
15694;BME280;7947;48.834;9.132;2023-05-14T13:50:22;97862.72;;;19.18;57.54
15694;BME280;7947;48.834;9.132;2023-05-14T13:53:25;97859.88;;;19.15;57.46
15694;BME280;7947;48.834;9.132;2023-05-14T13:56:30;97856.34;;;19.02;54.67
15694;BME280;7947;48.834;9.132;2023-05-14T13:59:32;97853.59;;;18.90;56.28
15694;BME280;7947;48.834;9.132;2023-05-14T14:02:35;97848.44;;;18.76;55.42
15694;BME280;7947;48.834;9.132;2023-05-14T14:05:38;97843.38;;;18.75;56.47
15694;BME280;7947;48.834;9.132;2023-05-14T14:08:41;97840.13;;;18.93;57.58
15694;BME280;7947;48.834;9.132;2023-05-14T14:11:45;97839.00;;;19.39;56.22
15694;BME280;7947;48.834;9.132;2023-05-14T14:14:48;97830.50;;;19.89;54.35
15694;BME280;7947;48.834;9.132;2023-05-14T14:17:51;97828.53;;;20.26;54.69
15694;BME280;7947;48.834;9.132;2023-05-14T14:20:54;97831.03;;;20.58;52.23
15694;BME280;7947;48.834;9.132;2023-05-14T14:23:56;97820.13;;;20.58;52.99
15694;BME280;7947;48.834;9.132;2023-05-14T14:27:00;97818.31;;;20.23;49.91
15694;BME280;7947;48.834;9.132;2023-05-14T14:30:05;97819.91;;;20.12;51.87
15694;BME280;7947;48.834;9.132;2023-05-14T14:33:08;97826.25;;;20.28;52.58
15694;BME280;7947;48.834;9.132;2023-05-14T14:36:11;97828.34;;;20.46;52.07
15694;BME280;7947;48.834;9.132;2023-05-14T14:39:14;97831.63;;;20.52;51.19
15694;BME280;7947;48.834;9.132;2023-05-14T14:42:18;97828.00;;;20.48;50.57
15694;BME280;7947;48.834;9.132;2023-05-14T14:45:21;97824.56;;;20.23;50.75
15694;BME280;7947;48.834;9.132;2023-05-14T14:48:25;97822.63;;;20.12;52.95
15694;BME280;7947;48.834;9.132;2023-05-14T14:51:28;97825.50;;;20.03;50.56
15694;BME280;7947;48.834;9.132;2023-05-14T14:54:32;97823.34;;;20.21;51.53
15694;BME280;7947;48.834;9.132;2023-05-14T14:57:37;97828.25;;;20.43;51.49
15694;BME280;7947;48.834;9.132;2023-05-14T15:00:40;97815.38;;;20.55;50.91
15694;BME280;7947;48.834;9.132;2023-05-14T15:03:43;97820.03;;;20.55;49.21
15694;BME280;7947;48.834;9.132;2023-05-14T15:06:46;97820.03;;;20.55;51.09
15694;BME280;7947;48.834;9.132;2023-05-14T15:09:48;97820.44;;;20.41;50.47
15694;BME280;7947;48.834;9.132;2023-05-14T15:12:52;97805.97;;;20.53;52.02
15694;BME280;7947;48.834;9.132;2023-05-14T15:15:55;97808.84;;;20.72;51.91
15694;BME280;7947;48.834;9.132;2023-05-14T15:18:58;97814.06;;;20.93;50.14
15694;BME280;7947;48.834;9.132;2023-05-14T15:22:01;97803.56;;;21.07;50.83
15694;BME280;7947;48.834;9.132;2023-05-14T15:25:04;97802.16;;;21.28;50.42
15694;BME280;7947;48.834;9.132;2023-05-14T15:28:08;97800.69;;;21.46;48.87
15694;BME280;7947;48.834;9.132;2023-05-14T15:31:11;97798.03;;;21.50;47.13
15694;BME280;7947;48.834;9.132;2023-05-14T15:34:14;97800.84;;;21.53;47.45
15694;BME280;7947;48.834;9.132;2023-05-14T15:37:16;97802.66;;;21.65;47.61
15694;BME280;7947;48.834;9.132;2023-05-14T15:40:19;97802.59;;;21.62;47.63
15694;BME280;7947;48.834;9.132;2023-05-14T15:43:24;97806.38;;;21.57;49.01
15694;BME280;7947;48.834;9.132;2023-05-14T15:46:26;97801.97;;;21.52;48.80
15694;BME280;7947;48.834;9.132;2023-05-14T15:49:29;97807.69;;;21.16;48.39
15694;BME280;7947;48.834;9.132;2023-05-14T15:52:32;97809.31;;;20.62;49.96
15694;BME280;7947;48.834;9.132;2023-05-14T15:55:36;97802.44;;;20.13;49.92
15694;BME280;7947;48.834;9.132;2023-05-14T15:58:40;97794.78;;;19.91;51.25
15694;BME280;7947;48.834;9.132;2023-05-14T16:01:42;97793.66;;;19.92;49.04
15694;BME280;7947;48.834;9.132;2023-05-14T16:04:45;97802.53;;;19.52;50.82
15694;BME280;7947;48.834;9.132;2023-05-14T16:07:49;97803.28;;;19.29;51.42
15694;BME280;7947;48.834;9.132;2023-05-14T16:10:52;97804.03;;;19.05;53.18
15694;BME280;7947;48.834;9.132;2023-05-14T16:13:56;97803.75;;;18.86;54.37
15694;BME280;7947;48.834;9.132;2023-05-14T16:17:00;97797.53;;;18.73;53.92
15694;BME280;7947;48.834;9.132;2023-05-14T16:20:03;97805.50;;;18.58;53.95
15694;BME280;7947;48.834;9.132;2023-05-14T16:23:06;97812.16;;;18.40;55.73
15694;BME280;7947;48.834;9.132;2023-05-14T16:26:09;97806.34;;;18.29;55.09
15694;BME280;7947;48.834;9.132;2023-05-14T16:29:13;97807.00;;;18.26;56.19